sensor_id;sensor_type;location;lat;lon;timestamp;temperature;humidity
16863;DHT22;52193;48.216;-1.698;2024-02-21T00:02:20;12.60;99.90
16863;DHT22;52193;48.216;-1.698;2024-02-21T00:04:47;12.60;99.90
16863;DHT22;52193;48.216;-1.698;2024-02-21T00:07:14;12.60;99.90
16863;DHT22;52193;48.216;-1.698;2024-02-21T00:09:41;12.60;99.90
16863;DHT22;52193;48.216;-1.698;2024-02-21T00:12:08;12.60;99.90
16863;DHT22;52193;48.216;-1.698;2024-02-21T00:14:37;12.60;99.90
16863;DHT22;52193;48.216;-1.698;2024-02-21T00:17:04;12.60;99.90
16863;DHT22;52193;48.216;-1.698;2024-02-21T00:19:30;12.50;99.90
16863;DHT22;52193;48.216;-1.698;2024-02-21T00:21:57;12.50;99.90
16863;DHT22;52193;48.216;-1.698;2024-02-21T00:24:24;12.50;99.90
16863;DHT22;52193;48.216;-1.698;2024-02-21T00:26:51;12.50;99.90
16863;DHT22;52193;48.216;-1.698;2024-02-21T00:29:18;12.50;99.90
16863;DHT22;52193;48.216;-1.698;2024-02-21T00:31:47;12.50;99.90
16863;DHT22;52193;48.216;-1.698;2024-02-21T00:34:14;12.50;99.90
16863;DHT22;52193;48.216;-1.698;2024-02-21T00:36:41;12.50;99.90
16863;DHT22;52193;48.216;-1.698;2024-02-21T00:39:08;12.50;99.90
16863;DHT22;52193;48.216;-1.698;2024-02-21T00:41:35;12.50;99.90
16863;DHT22;52193;48.216;-1.698;2024-02-21T00:44:02;12.50;99.90
16863;DHT22;52193;48.216;-1.698;2024-02-21T00:46:31;12.50;99.90
16863;DHT22;52193;48.216;-1.698;2024-02-21T00:48:59;12.50;99.90
16863;DHT22;52193;48.216;-1.698;2024-02-21T00:51:26;12.50;99.90
16863;DHT22;52193;48.216;-1.698;2024-02-21T00:53:53;12.50;99.90
16863;DHT22;52193;48.216;-1.698;2024-02-21T00:56:19;12.50;99.90
16863;DHT22;52193;48.216;-1.698;2024-02-21T00:58:46;12.50;99.90
16863;DHT22;52193;48.216;-1.698;2024-02-21T01:01:21;12.50;99.90
16863;DHT22;52193;48.216;-1.698;2024-02-21T01:03:48;12.50;99.90
16863;DHT22;52193;48.216;-1.698;2024-02-21T01:06:17;12.50;99.90
16863;DHT22;52193;48.216;-1.698;2024-02-21T01:08:44;12.50;99.90
16863;DHT22;52193;48.216;-1.698;2024-02-21T01:11:11;12.40;99.90
16863;DHT22;52193;48.216;-1.698;2024-02-21T01:13:37;12.40;99.90
16863;DHT22;52193;48.216;-1.698;2024-02-21T01:16:04;12.40;99.90
16863;DHT22;52193;48.216;-1.698;2024-02-21T01:18:32;12.40;99.90
16863;DHT22;52193;48.216;-1.698;2024-02-21T01:20:58;12.40;99.90
16863;DHT22;52193;48.216;-1.698;2024-02-21T01:23:27;12.40;99.90
16863;DHT22;52193;48.216;-1.698;2024-02-21T01:25:54;12.40;99.90
16863;DHT22;52193;48.216;-1.698;2024-02-21T01:28:21;12.40;99.90
16863;DHT22;52193;48.216;-1.698;2024-02-21T01:30:48;12.40;99.90
16863;DHT22;52193;48.216;-1.698;2024-02-21T01:33:15;12.30;99.90
16863;DHT22;52193;48.216;-1.698;2024-02-21T01:35:42;12.30;99.90
16863;DHT22;52193;48.216;-1.698;2024-02-21T01:38:09;12.30;99.90
16863;DHT22;52193;48.216;-1.698;2024-02-21T01:40:37;12.30;99.90
16863;DHT22;52193;48.216;-1.698;2024-02-21T01:43:14;12.30;99.90
16863;DHT22;52193;48.216;-1.698;2024-02-21T01:45:41;12.20;99.90
16863;DHT22;52193;48.216;-1.698;2024-02-21T01:48:08;12.30;99.90
16863;DHT22;52193;48.216;-1.698;2024-02-21T01:50:35;12.30;99.90
16863;DHT22;52193;48.216;-1.698;2024-02-21T01:53:03;12.30;99.90
16863;DHT22;52193;48.216;-1.698;2024-02-21T01:55:30;12.30;99.90
16863;DHT22;52193;48.216;-1.698;2024-02-21T01:57:58;12.30;99.90
16863;DHT22;52193;48.216;-1.698;2024-02-21T02:00:26;12.30;99.90
16863;DHT22;52193;48.216;-1.698;2024-02-21T02:02:54;12.30;99.90
16863;DHT22;52193;48.216;-1.698;2024-02-21T02:05:21;12.30;99.90
16863;DHT22;52193;48.216;-1.698;2024-02-21T02:07:48;12.30;99.90
16863;DHT22;52193;48.216;-1.698;2024-02-21T02:10:15;12.30;99.90
16863;DHT22;52193;48.216;-1.698;2024-02-21T02:12:42;12.30;99.90
16863;DHT22;52193;48.216;-1.698;2024-02-21T02:15:11;12.30;99.90
16863;DHT22;52193;48.216;-1.698;2024-02-21T02:17:37;12.20;99.90
16863;DHT22;52193;48.216;-1.698;2024-02-21T02:20:05;12.20;99.90
16863;DHT22;52193;48.216;-1.698;2024-02-21T02:22:36;12.20;99.90
16863;DHT22;52193;48.216;-1.698;2024-02-21T02:25:05;12.20;99.90
16863;DHT22;52193;48.216;-1.698;2024-02-21T02:27:32;12.20;99.90
16863;DHT22;52193;48.216;-1.698;2024-02-21T02:29:59;12.20;99.90
16863;DHT22;52193;48.216;-1.698;2024-02-21T02:32:26;12.20;99.90
16863;DHT22;52193;48.216;-1.698;2024-02-21T02:34:53;12.20;99.90
16863;DHT22;52193;48.216;-1.698;2024-02-21T02:37:19;12.20;99.90
16863;DHT22;52193;48.216;-1.698;2024-02-21T02:39:46;12.20;99.90
16863;DHT22;52193;48.216;-1.698;2024-02-21T02:42:16;12.20;99.90
16863;DHT22;52193;48.216;-1.698;2024-02-21T02:44:43;12.20;99.90
16863;DHT22;52193;48.216;-1.698;2024-02-21T02:47:10;12.20;99.90
16863;DHT22;52193;48.216;-1.698;2024-02-21T02:49:36;12.20;99.90
16863;DHT22;52193;48.216;-1.698;2024-02-21T02:52:04;12.20;99.90
16863;DHT22;52193;48.216;-1.698;2024-02-21T02:54:31;12.20;99.90
16863;DHT22;52193;48.216;-1.698;2024-02-21T02:56:58;12.20;99.90
16863;DHT22;52193;48.216;-1.698;2024-02-21T02:59:26;12.20;99.90
16863;DHT22;52193;48.216;-1.698;2024-02-21T03:01:53;12.10;99.90
16863;DHT22;52193;48.216;-1.698;2024-02-21T03:04:19;12.20;99.90
16863;DHT22;52193;48.216;-1.698;2024-02-21T03:06:46;12.20;99.90
16863;DHT22;52193;48.216;-1.698;2024-02-21T03:09:13;12.10;99.90
16863;DHT22;52193;48.216;-1.698;2024-02-21T03:11:41;12.10;99.90
16863;DHT22;52193;48.216;-1.698;2024-02-21T03:14:10;12.10;99.90
16863;DHT22;52193;48.216;-1.698;2024-02-21T03:16:38;12.10;99.90
16863;DHT22;52193;48.216;-1.698;2024-02-21T03:19:05;12.10;99.90
16863;DHT22;52193;48.216;-1.698;2024-02-21T03:21:32;12.10;99.90
16863;DHT22;52193;48.216;-1.698;2024-02-21T03:23:59;12.10;99.90
16863;DHT22;52193;48.216;-1.698;2024-02-21T03:26:26;12.10;99.90
16863;DHT22;52193;48.216;-1.698;2024-02-21T03:28:53;12.10;99.90
16863;DHT22;52193;48.216;-1.698;2024-02-21T03:31:19;12.10;99.90
16863;DHT22;52193;48.216;-1.698;2024-02-21T03:33:48;12.10;99.90
16863;DHT22;52193;48.216;-1.698;2024-02-21T03:36:15;12.10;99.90
16863;DHT22;52193;48.216;-1.698;2024-02-21T03:38:41;12.10;99.90
16863;DHT22;52193;48.216;-1.698;2024-02-21T03:41:08;12.10;99.90
16863;DHT22;52193;48.216;-1.698;2024-02-21T03:43:37;12.10;99.90
16863;DHT22;52193;48.216;-1.698;2024-02-21T03:46:03;12.00;99.90
16863;DHT22;52193;48.216;-1.698;2024-02-21T03:48:30;12.00;99.90
16863;DHT22;52193;48.216;-1.698;2024-02-21T03:50:58;12.10;99.90
16863;DHT22;52193;48.216;-1.698;2024-02-21T03:53:25;12.00;99.90
16863;DHT22;52193;48.216;-1.698;2024-02-21T03:55:52;12.00;99.90
16863;DHT22;52193;48.216;-1.698;2024-02-21T03:58:20;12.00;99.90
16863;DHT22;52193;48.216;-1.698;2024-02-21T04:00:47;12.10;99.90
16863;DHT22;52193;48.216;-1.698;2024-02-21T04:03:14;12.10;99.90
16863;DHT22;52193;48.216;-1.698;2024-02-21T04:05:41;12.10;99.90
16863;DHT22;52193;48.216;-1.698;2024-02-21T04:08:09;12.10;99.90
16863;DHT22;52193;48.216;-1.698;2024-02-21T04:10:36;12.10;99.90
16863;DHT22;52193;48.216;-1.698;2024-02-21T04:13:03;12.10;99.90
16863;DHT22;52193;48.216;-1.698;2024-02-21T04:15:30;12.10;99.90
16863;DHT22;52193;48.216;-1.698;2024-02-21T04:17:57;12.10;99.90
16863;DHT22;52193;48.216;-1.698;2024-02-21T04:20:24;12.10;99.90
16863;DHT22;52193;48.216;-1.698;2024-02-21T04:22:51;12.10;99.90
16863;DHT22;52193;48.216;-1.698;2024-02-21T04:25:19;12.10;99.90
16863;DHT22;52193;48.216;-1.698;2024-02-21T04:27:46;12.10;99.90
16863;DHT22;52193;48.216;-1.698;2024-02-21T04:30:13;12.10;99.90
16863;DHT22;52193;48.216;-1.698;2024-02-21T04:32:41;12.10;99.90
16863;DHT22;52193;48.216;-1.698;2024-02-21T04:35:08;12.10;99.90
16863;DHT22;52193;48.216;-1.698;2024-02-21T04:37:35;12.10;99.90
16863;DHT22;52193;48.216;-1.698;2024-02-21T04:40:02;12.10;99.90
16863;DHT22;52193;48.216;-1.698;2024-02-21T04:42:30;12.10;99.90
16863;DHT22;52193;48.216;-1.698;2024-02-21T04:44:57;12.10;99.90
16863;DHT22;52193;48.216;-1.698;2024-02-21T04:47:24;12.10;99.90
16863;DHT22;52193;48.216;-1.698;2024-02-21T04:49:51;12.10;99.90
16863;DHT22;52193;48.216;-1.698;2024-02-21T04:52:18;12.10;99.90
16863;DHT22;52193;48.216;-1.698;2024-02-21T04:54:44;12.10;99.90
16863;DHT22;52193;48.216;-1.698;2024-02-21T04:57:11;12.10;99.90
16863;DHT22;52193;48.216;-1.698;2024-02-21T04:59:43;12.10;99.90
16863;DHT22;52193;48.216;-1.698;2024-02-21T05:02:10;12.10;99.90
16863;DHT22;52193;48.216;-1.698;2024-02-21T05:04:37;12.10;99.90
16863;DHT22;52193;48.216;-1.698;2024-02-21T05:07:05;12.10;99.90
16863;DHT22;52193;48.216;-1.698;2024-02-21T05:09:32;12.00;99.90
16863;DHT22;52193;48.216;-1.698;2024-02-21T05:11:59;12.10;99.90
16863;DHT22;52193;48.216;-1.698;2024-02-21T05:14:26;12.00;99.90
16863;DHT22;52193;48.216;-1.698;2024-02-21T05:16:54;12.10;99.90
16863;DHT22;52193;48.216;-1.698;2024-02-21T05:19:21;12.10;99.90
16863;DHT22;52193;48.216;-1.698;2024-02-21T05:21:48;12.10;99.90
16863;DHT22;52193;48.216;-1.698;2024-02-21T05:24:15;12.10;99.90
16863;DHT22;52193;48.216;-1.698;2024-02-21T05:26:42;12.10;99.90
16863;DHT22;52193;48.216;-1.698;2024-02-21T05:29:09;12.10;99.90
16863;DHT22;52193;48.216;-1.698;2024-02-21T05:31:56;12.10;99.90
16863;DHT22;52193;48.216;-1.698;2024-02-21T05:34:24;12.10;99.90
16863;DHT22;52193;48.216;-1.698;2024-02-21T05:36:51;12.10;99.90
16863;DHT22;52193;48.216;-1.698;2024-02-21T05:39:18;12.10;99.90
16863;DHT22;52193;48.216;-1.698;2024-02-21T05:41:45;12.10;99.90
16863;DHT22;52193;48.216;-1.698;2024-02-21T05:44:12;12.10;99.90
16863;DHT22;52193;48.216;-1.698;2024-02-21T05:46:39;12.10;99.90
16863;DHT22;52193;48.216;-1.698;2024-02-21T05:49:07;12.10;99.90
16863;DHT22;52193;48.216;-1.698;2024-02-21T05:51:34;12.10;99.90
16863;DHT22;52193;48.216;-1.698;2024-02-21T05:54:01;12.10;99.90
16863;DHT22;52193;48.216;-1.698;2024-02-21T05:56:28;12.10;99.90
16863;DHT22;52193;48.216;-1.698;2024-02-21T05:58:55;12.00;99.90
16863;DHT22;52193;48.216;-1.698;2024-02-21T06:01:22;12.00;99.90
16863;DHT22;52193;48.216;-1.698;2024-02-21T06:03:49;12.00;99.90
16863;DHT22;52193;48.216;-1.698;2024-02-21T06:06:17;12.00;99.90
16863;DHT22;52193;48.216;-1.698;2024-02-21T06:08:44;12.00;99.90
16863;DHT22;52193;48.216;-1.698;2024-02-21T06:11:10;12.00;99.90
16863;DHT22;52193;48.216;-1.698;2024-02-21T06:13:38;12.10;99.90
16863;DHT22;52193;48.216;-1.698;2024-02-21T06:16:06;12.10;99.90
16863;DHT22;52193;48.216;-1.698;2024-02-21T06:18:35;12.10;99.90
16863;DHT22;52193;48.216;-1.698;2024-02-21T06:21:03;12.10;99.90
16863;DHT22;52193;48.216;-1.698;2024-02-21T06:23:31;12.10;99.90
16863;DHT22;52193;48.216;-1.698;2024-02-21T06:25:58;12.10;99.90
16863;DHT22;52193;48.216;-1.698;2024-02-21T06:28:25;12.10;99.90
16863;DHT22;52193;48.216;-1.698;2024-02-21T06:30:52;12.10;99.90
16863;DHT22;52193;48.216;-1.698;2024-02-21T06:33:19;12.10;99.90
16863;DHT22;52193;48.216;-1.698;2024-02-21T06:35:50;12.10;99.90
16863;DHT22;52193;48.216;-1.698;2024-02-21T06:38:18;12.10;99.90
16863;DHT22;52193;48.216;-1.698;2024-02-21T06:40:46;12.10;99.90
16863;DHT22;52193;48.216;-1.698;2024-02-21T06:43:18;12.10;99.90
16863;DHT22;52193;48.216;-1.698;2024-02-21T06:45:46;12.10;99.90
16863;DHT22;52193;48.216;-1.698;2024-02-21T06:48:16;12.10;99.90
16863;DHT22;52193;48.216;-1.698;2024-02-21T06:50:43;12.10;99.90
16863;DHT22;52193;48.216;-1.698;2024-02-21T06:53:10;12.10;99.90
16863;DHT22;52193;48.216;-1.698;2024-02-21T06:55:37;12.10;99.90
16863;DHT22;52193;48.216;-1.698;2024-02-21T06:58:05;12.10;99.90
16863;DHT22;52193;48.216;-1.698;2024-02-21T07:00:37;12.10;99.90
16863;DHT22;52193;48.216;-1.698;2024-02-21T07:03:04;12.10;99.90
16863;DHT22;52193;48.216;-1.698;2024-02-21T07:05:31;12.10;99.90
16863;DHT22;52193;48.216;-1.698;2024-02-21T07:07:58;12.10;99.90
16863;DHT22;52193;48.216;-1.698;2024-02-21T07:10:25;12.10;99.90
16863;DHT22;52193;48.216;-1.698;2024-02-21T07:12:53;12.10;99.90
16863;DHT22;52193;48.216;-1.698;2024-02-21T07:15:21;12.10;99.90
16863;DHT22;52193;48.216;-1.698;2024-02-21T07:17:48;12.10;99.90
16863;DHT22;52193;48.216;-1.698;2024-02-21T07:20:15;12.10;99.90
16863;DHT22;52193;48.216;-1.698;2024-02-21T07:22:42;12.20;99.90
16863;DHT22;52193;48.216;-1.698;2024-02-21T07:25:09;12.20;99.90
16863;DHT22;52193;48.216;-1.698;2024-02-21T07:27:36;12.20;99.90
16863;DHT22;52193;48.216;-1.698;2024-02-21T07:30:04;12.20;99.90
16863;DHT22;52193;48.216;-1.698;2024-02-21T07:32:32;12.20;99.90
16863;DHT22;52193;48.216;-1.698;2024-02-21T07:34:59;12.20;99.90
16863;DHT22;52193;48.216;-1.698;2024-02-21T07:37:26;12.20;99.90
16863;DHT22;52193;48.216;-1.698;2024-02-21T07:39:53;12.20;99.90
16863;DHT22;52193;48.216;-1.698;2024-02-21T07:42:19;12.20;99.90
16863;DHT22;52193;48.216;-1.698;2024-02-21T07:44:46;12.20;99.90
16863;DHT22;52193;48.216;-1.698;2024-02-21T07:47:13;12.20;99.90
16863;DHT22;52193;48.216;-1.698;2024-02-21T07:49:46;12.20;99.90
16863;DHT22;52193;48.216;-1.698;2024-02-21T07:52:14;12.20;99.90
16863;DHT22;52193;48.216;-1.698;2024-02-21T07:54:41;12.20;99.90
16863;DHT22;52193;48.216;-1.698;2024-02-21T07:57:08;12.20;99.90
16863;DHT22;52193;48.216;-1.698;2024-02-21T07:59:34;12.20;99.90
16863;DHT22;52193;48.216;-1.698;2024-02-21T08:02:01;12.20;99.90
16863;DHT22;52193;48.216;-1.698;2024-02-21T08:04:32;12.20;99.90
16863;DHT22;52193;48.216;-1.698;2024-02-21T08:07:00;12.20;99.90
16863;DHT22;52193;48.216;-1.698;2024-02-21T08:09:29;12.20;99.90
16863;DHT22;52193;48.216;-1.698;2024-02-21T08:11:57;12.20;99.90
16863;DHT22;52193;48.216;-1.698;2024-02-21T08:14:23;12.20;99.90
16863;DHT22;52193;48.216;-1.698;2024-02-21T08:16:51;12.20;99.90
16863;DHT22;52193;48.216;-1.698;2024-02-21T08:19:18;12.20;99.90
16863;DHT22;52193;48.216;-1.698;2024-02-21T08:21:45;12.20;99.90
16863;DHT22;52193;48.216;-1.698;2024-02-21T08:24:14;12.20;99.90
16863;DHT22;52193;48.216;-1.698;2024-02-21T08:26:41;12.20;99.90
16863;DHT22;52193;48.216;-1.698;2024-02-21T08:29:08;12.10;99.90
16863;DHT22;52193;48.216;-1.698;2024-02-21T08:31:35;12.10;99.90
16863;DHT22;52193;48.216;-1.698;2024-02-21T08:34:02;12.10;99.90
16863;DHT22;52193;48.216;-1.698;2024-02-21T08:36:29;12.10;99.90
16863;DHT22;52193;48.216;-1.698;2024-02-21T08:38:56;12.10;99.90
16863;DHT22;52193;48.216;-1.698;2024-02-21T08:41:25;12.10;99.90
16863;DHT22;52193;48.216;-1.698;2024-02-21T08:43:52;12.10;99.90
16863;DHT22;52193;48.216;-1.698;2024-02-21T08:46:19;12.10;99.90
16863;DHT22;52193;48.216;-1.698;2024-02-21T08:48:46;12.10;99.90
16863;DHT22;52193;48.216;-1.698;2024-02-21T08:51:13;12.20;99.90
16863;DHT22;52193;48.216;-1.698;2024-02-21T08:53:40;12.10;99.90
16863;DHT22;52193;48.216;-1.698;2024-02-21T08:56:07;12.20;99.90
16863;DHT22;52193;48.216;-1.698;2024-02-21T08:58:36;12.20;99.90
16863;DHT22;52193;48.216;-1.698;2024-02-21T09:01:04;12.20;99.90
16863;DHT22;52193;48.216;-1.698;2024-02-21T09:03:31;12.20;99.90
16863;DHT22;52193;48.216;-1.698;2024-02-21T09:05:58;12.20;99.90
16863;DHT22;52193;48.216;-1.698;2024-02-21T09:08:25;12.20;99.90
16863;DHT22;52193;48.216;-1.698;2024-02-21T09:10:52;12.20;99.90
16863;DHT22;52193;48.216;-1.698;2024-02-21T09:13:19;12.20;99.90
16863;DHT22;52193;48.216;-1.698;2024-02-21T09:15:48;12.30;99.90
16863;DHT22;52193;48.216;-1.698;2024-02-21T09:18:15;12.30;99.90
16863;DHT22;52193;48.216;-1.698;2024-02-21T09:20:42;12.30;99.90
16863;DHT22;52193;48.216;-1.698;2024-02-21T09:23:09;12.30;99.90
16863;DHT22;52193;48.216;-1.698;2024-02-21T09:25:36;12.30;99.90
16863;DHT22;52193;48.216;-1.698;2024-02-21T09:28:03;12.30;99.90
16863;DHT22;52193;48.216;-1.698;2024-02-21T09:30:31;12.30;99.90
16863;DHT22;52193;48.216;-1.698;2024-02-21T09:33:00;12.30;99.90
16863;DHT22;52193;48.216;-1.698;2024-02-21T09:35:27;12.30;99.90
16863;DHT22;52193;48.216;-1.698;2024-02-21T09:37:54;12.30;99.90
16863;DHT22;52193;48.216;-1.698;2024-02-21T09:40:21;12.30;99.90
16863;DHT22;52193;48.216;-1.698;2024-02-21T09:42:48;12.30;99.90
16863;DHT22;52193;48.216;-1.698;2024-02-21T09:45:20;12.30;99.90
16863;DHT22;52193;48.216;-1.698;2024-02-21T09:48:05;12.30;99.90
16863;DHT22;52193;48.216;-1.698;2024-02-21T09:50:34;12.40;99.90
16863;DHT22;52193;48.216;-1.698;2024-02-21T09:53:02;12.40;99.90
16863;DHT22;52193;48.216;-1.698;2024-02-21T09:55:33;12.40;99.90
16863;DHT22;52193;48.216;-1.698;2024-02-21T09:58:01;12.30;99.90
16863;DHT22;52193;48.216;-1.698;2024-02-21T10:00:28;12.30;99.90
16863;DHT22;52193;48.216;-1.698;2024-02-21T10:02:55;12.40;99.90
16863;DHT22;52193;48.216;-1.698;2024-02-21T10:05:24;12.40;99.90
16863;DHT22;52193;48.216;-1.698;2024-02-21T10:07:51;12.40;99.90
16863;DHT22;52193;48.216;-1.698;2024-02-21T10:10:18;12.40;99.90
16863;DHT22;52193;48.216;-1.698;2024-02-21T10:12:50;12.40;99.90
16863;DHT22;52193;48.216;-1.698;2024-02-21T10:15:21;12.40;99.90
16863;DHT22;52193;48.216;-1.698;2024-02-21T10:17:49;12.40;99.90
16863;DHT22;52193;48.216;-1.698;2024-02-21T10:20:16;12.50;99.90
16863;DHT22;52193;48.216;-1.698;2024-02-21T10:22:44;12.50;99.90
16863;DHT22;52193;48.216;-1.698;2024-02-21T10:25:12;12.50;99.90
16863;DHT22;52193;48.216;-1.698;2024-02-21T10:27:40;12.50;99.90
16863;DHT22;52193;48.216;-1.698;2024-02-21T10:30:13;12.50;99.90
16863;DHT22;52193;48.216;-1.698;2024-02-21T10:32:49;12.60;99.90
16863;DHT22;52193;48.216;-1.698;2024-02-21T10:35:26;12.50;99.90
16863;DHT22;52193;48.216;-1.698;2024-02-21T10:37:55;12.60;99.90
16863;DHT22;52193;48.216;-1.698;2024-02-21T10:40:23;12.60;99.90
16863;DHT22;52193;48.216;-1.698;2024-02-21T10:42:56;12.60;99.90
16863;DHT22;52193;48.216;-1.698;2024-02-21T10:45:29;12.60;99.90
16863;DHT22;52193;48.216;-1.698;2024-02-21T10:48:01;12.60;99.90
16863;DHT22;52193;48.216;-1.698;2024-02-21T10:50:36;12.60;99.90
16863;DHT22;52193;48.216;-1.698;2024-02-21T10:53:18;12.60;99.90
16863;DHT22;52193;48.216;-1.698;2024-02-21T10:55:56;12.60;99.90
16863;DHT22;52193;48.216;-1.698;2024-02-21T10:58:25;12.60;99.90
16863;DHT22;52193;48.216;-1.698;2024-02-21T11:00:54;12.70;99.90
16863;DHT22;52193;48.216;-1.698;2024-02-21T11:03:21;12.70;99.90
16863;DHT22;52193;48.216;-1.698;2024-02-21T11:05:49;12.70;99.90
16863;DHT22;52193;48.216;-1.698;2024-02-21T11:08:17;12.70;99.90
16863;DHT22;52193;48.216;-1.698;2024-02-21T11:10:46;12.70;99.90
16863;DHT22;52193;48.216;-1.698;2024-02-21T11:13:13;12.70;99.90
16863;DHT22;52193;48.216;-1.698;2024-02-21T11:15:40;12.70;99.90
16863;DHT22;52193;48.216;-1.698;2024-02-21T11:18:07;12.70;99.90
16863;DHT22;52193;48.216;-1.698;2024-02-21T11:20:35;12.70;99.90
16863;DHT22;52193;48.216;-1.698;2024-02-21T11:23:02;12.70;99.90
16863;DHT22;52193;48.216;-1.698;2024-02-21T11:25:31;12.70;99.90
16863;DHT22;52193;48.216;-1.698;2024-02-21T11:28:00;12.70;99.90
16863;DHT22;52193;48.216;-1.698;2024-02-21T11:30:27;12.70;99.90
16863;DHT22;52193;48.216;-1.698;2024-02-21T11:33:02;12.70;99.90
16863;DHT22;52193;48.216;-1.698;2024-02-21T11:35:33;12.60;99.90
16863;DHT22;52193;48.216;-1.698;2024-02-21T11:38:10;12.60;99.90
16863;DHT22;52193;48.216;-1.698;2024-02-21T11:40:43;12.60;99.90
16863;DHT22;52193;48.216;-1.698;2024-02-21T11:43:11;12.60;99.90
16863;DHT22;52193;48.216;-1.698;2024-02-21T11:45:38;12.50;99.90
16863;DHT22;52193;48.216;-1.698;2024-02-21T11:48:06;12.50;99.90
16863;DHT22;52193;48.216;-1.698;2024-02-21T11:50:34;12.50;99.90
16863;DHT22;52193;48.216;-1.698;2024-02-21T11:53:02;12.50;99.90
16863;DHT22;52193;48.216;-1.698;2024-02-21T11:55:29;12.50;99.90
16863;DHT22;52193;48.216;-1.698;2024-02-21T11:57:57;12.60;99.90
16863;DHT22;52193;48.216;-1.698;2024-02-21T12:00:26;12.60;99.90
16863;DHT22;52193;48.216;-1.698;2024-02-21T12:02:52;12.60;99.90
16863;DHT22;52193;48.216;-1.698;2024-02-21T12:05:21;12.60;99.90
16863;DHT22;52193;48.216;-1.698;2024-02-21T12:07:48;12.60;99.90
16863;DHT22;52193;48.216;-1.698;2024-02-21T12:10:14;12.60;99.90
16863;DHT22;52193;48.216;-1.698;2024-02-21T12:12:41;12.60;99.90
16863;DHT22;52193;48.216;-1.698;2024-02-21T12:15:10;12.50;99.90
16863;DHT22;52193;48.216;-1.698;2024-02-21T12:17:37;12.50;99.90
16863;DHT22;52193;48.216;-1.698;2024-02-21T12:20:05;12.50;99.90
16863;DHT22;52193;48.216;-1.698;2024-02-21T12:22:35;12.40;99.90
16863;DHT22;52193;48.216;-1.698;2024-02-21T12:25:03;12.40;99.90
16863;DHT22;52193;48.216;-1.698;2024-02-21T12:27:33;12.40;99.90
16863;DHT22;52193;48.216;-1.698;2024-02-21T12:30:00;12.40;99.90
16863;DHT22;52193;48.216;-1.698;2024-02-21T12:32:28;12.30;99.90
16863;DHT22;52193;48.216;-1.698;2024-02-21T12:34:55;12.30;99.90
16863;DHT22;52193;48.216;-1.698;2024-02-21T12:37:22;12.30;99.90
16863;DHT22;52193;48.216;-1.698;2024-02-21T12:39:50;12.20;99.90
16863;DHT22;52193;48.216;-1.698;2024-02-21T12:42:17;12.20;99.90
16863;DHT22;52193;48.216;-1.698;2024-02-21T12:44:44;12.20;99.90
16863;DHT22;52193;48.216;-1.698;2024-02-21T12:47:11;12.20;99.90
16863;DHT22;52193;48.216;-1.698;2024-02-21T12:49:39;12.20;99.90
16863;DHT22;52193;48.216;-1.698;2024-02-21T12:52:07;12.20;99.90
16863;DHT22;52193;48.216;-1.698;2024-02-21T12:54:34;12.20;99.90
16863;DHT22;52193;48.216;-1.698;2024-02-21T12:57:00;12.20;99.90
16863;DHT22;52193;48.216;-1.698;2024-02-21T12:59:28;12.10;99.90
16863;DHT22;52193;48.216;-1.698;2024-02-21T13:01:55;12.10;99.90
16863;DHT22;52193;48.216;-1.698;2024-02-21T13:04:22;12.10;99.90
16863;DHT22;52193;48.216;-1.698;2024-02-21T13:06:51;12.00;99.90
16863;DHT22;52193;48.216;-1.698;2024-02-21T13:09:18;12.10;99.90
16863;DHT22;52193;48.216;-1.698;2024-02-21T13:11:45;12.00;99.90
16863;DHT22;52193;48.216;-1.698;2024-02-21T13:14:12;12.00;99.90
16863;DHT22;52193;48.216;-1.698;2024-02-21T13:16:39;12.00;99.90
16863;DHT22;52193;48.216;-1.698;2024-02-21T13:19:06;12.00;99.90
16863;DHT22;52193;48.216;-1.698;2024-02-21T13:21:33;11.90;99.90
16863;DHT22;52193;48.216;-1.698;2024-02-21T13:24:02;11.90;99.90
16863;DHT22;52193;48.216;-1.698;2024-02-21T13:26:29;11.90;99.90
16863;DHT22;52193;48.216;-1.698;2024-02-21T13:28:56;11.90;99.90
16863;DHT22;52193;48.216;-1.698;2024-02-21T13:31:23;11.90;99.90
16863;DHT22;52193;48.216;-1.698;2024-02-21T13:33:50;11.90;99.90
16863;DHT22;52193;48.216;-1.698;2024-02-21T13:36:17;12.00;99.90
16863;DHT22;52193;48.216;-1.698;2024-02-21T13:38:44;11.90;99.90
16863;DHT22;52193;48.216;-1.698;2024-02-21T13:41:13;12.00;99.90
16863;DHT22;52193;48.216;-1.698;2024-02-21T13:43:40;12.00;99.90
16863;DHT22;52193;48.216;-1.698;2024-02-21T13:46:07;12.00;99.90
16863;DHT22;52193;48.216;-1.698;2024-02-21T13:48:37;12.00;99.90
16863;DHT22;52193;48.216;-1.698;2024-02-21T13:51:04;12.10;99.90
16863;DHT22;52193;48.216;-1.698;2024-02-21T13:53:31;12.00;99.90
16863;DHT22;52193;48.216;-1.698;2024-02-21T13:55:58;12.10;99.90
16863;DHT22;52193;48.216;-1.698;2024-02-21T13:58:26;12.10;99.90
16863;DHT22;52193;48.216;-1.698;2024-02-21T14:00:53;12.10;99.90
16863;DHT22;52193;48.216;-1.698;2024-02-21T14:03:20;12.20;99.90
16863;DHT22;52193;48.216;-1.698;2024-02-21T14:05:47;12.20;99.90
16863;DHT22;52193;48.216;-1.698;2024-02-21T14:08:14;12.20;99.90
16863;DHT22;52193;48.216;-1.698;2024-02-21T14:10:41;12.20;99.90
16863;DHT22;52193;48.216;-1.698;2024-02-21T14:13:08;12.20;99.90
16863;DHT22;52193;48.216;-1.698;2024-02-21T14:15:36;12.30;99.90
16863;DHT22;52193;48.216;-1.698;2024-02-21T14:18:06;12.30;99.90
16863;DHT22;52193;48.216;-1.698;2024-02-21T14:20:35;12.30;99.90
16863;DHT22;52193;48.216;-1.698;2024-02-21T14:23:02;12.30;99.90
16863;DHT22;52193;48.216;-1.698;2024-02-21T14:25:30;12.40;99.90
16863;DHT22;52193;48.216;-1.698;2024-02-21T14:27:56;12.40;99.90
16863;DHT22;52193;48.216;-1.698;2024-02-21T14:30:23;12.50;99.90
16863;DHT22;52193;48.216;-1.698;2024-02-21T14:32:52;12.50;99.90
16863;DHT22;52193;48.216;-1.698;2024-02-21T14:35:19;12.50;99.90
16863;DHT22;52193;48.216;-1.698;2024-02-21T14:37:46;12.50;99.90
16863;DHT22;52193;48.216;-1.698;2024-02-21T14:40:14;12.60;99.90
16863;DHT22;52193;48.216;-1.698;2024-02-21T14:42:41;12.60;99.90
16863;DHT22;52193;48.216;-1.698;2024-02-21T14:45:09;12.60;99.90
16863;DHT22;52193;48.216;-1.698;2024-02-21T14:47:35;12.70;99.90
16863;DHT22;52193;48.216;-1.698;2024-02-21T14:50:04;12.70;99.90
16863;DHT22;52193;48.216;-1.698;2024-02-21T14:52:32;12.70;99.90
16863;DHT22;52193;48.216;-1.698;2024-02-21T14:55:01;12.70;99.90
16863;DHT22;52193;48.216;-1.698;2024-02-21T14:57:28;12.80;99.90
16863;DHT22;52193;48.216;-1.698;2024-02-21T14:59:55;12.80;99.90
16863;DHT22;52193;48.216;-1.698;2024-02-21T15:02:24;12.80;99.90
16863;DHT22;52193;48.216;-1.698;2024-02-21T15:04:53;12.80;99.90
16863;DHT22;52193;48.216;-1.698;2024-02-21T15:07:21;12.90;99.90
16863;DHT22;52193;48.216;-1.698;2024-02-21T15:09:50;12.90;99.90
16863;DHT22;52193;48.216;-1.698;2024-02-21T15:12:17;12.90;99.90
16863;DHT22;52193;48.216;-1.698;2024-02-21T15:14:44;13.00;99.90
16863;DHT22;52193;48.216;-1.698;2024-02-21T15:17:11;13.00;99.90
16863;DHT22;52193;48.216;-1.698;2024-02-21T15:19:38;13.00;99.90